createdAt,value
2018-01-26T00:00:52.512Z,17.43
2018-01-26T00:03:19.993Z,17.57
2018-01-26T00:05:47.482Z,15.70
2018-01-26T00:08:14.936Z,16.13
2018-01-26T00:10:42.392Z,16.80
2018-01-26T00:13:09.849Z,16.00
2018-01-26T00:15:37.338Z,15.37
2018-01-26T00:18:04.823Z,17.30
2018-01-26T00:20:32.276Z,18.37
2018-01-26T00:22:59.743Z,15.83
2018-01-26T00:25:27.256Z,15.07
2018-01-26T00:27:54.727Z,16.20
2018-01-26T00:30:22.215Z,14.97
2018-01-26T00:32:49.694Z,15.97
2018-01-26T00:35:17.146Z,13.57
2018-01-26T00:37:44.609Z,14.40
2018-01-26T00:40:12.082Z,13.37
2018-01-26T00:42:39.556Z,14.87
2018-01-26T00:45:07.012Z,16.27
2018-01-26T00:47:34.701Z,13.53
2018-01-26T00:50:02.210Z,13.47
2018-01-26T00:52:29.719Z,13.90
2018-01-26T00:54:57.208Z,13.93
2018-01-26T00:57:24.668Z,13.97
2018-01-26T00:59:52.146Z,14.30
2018-01-26T01:02:19.630Z,13.97
2018-01-26T01:04:47.110Z,13.53
2018-01-26T01:07:14.657Z,12.87
2018-01-26T01:09:42.093Z,12.40
2018-01-26T01:12:09.679Z,13.47
2018-01-26T01:14:37.168Z,12.77
2018-01-26T01:17:04.669Z,13.50
2018-01-26T01:19:32.144Z,13.70
2018-01-26T01:21:59.721Z,13.00
2018-01-26T01:24:27.748Z,13.97
2018-01-26T01:26:55.269Z,14.17
2018-01-26T01:29:22.725Z,13.53
2018-01-26T01:31:50.294Z,14.67
2018-01-26T01:34:17.763Z,14.37
2018-01-26T01:36:45.212Z,14.13
2018-01-26T01:39:12.696Z,15.17
2018-01-26T01:41:40.174Z,14.40
2018-01-26T01:44:07.647Z,13.77
2018-01-26T01:46:35.107Z,13.00
2018-01-26T01:49:14.388Z,13.17
2018-01-26T01:51:41.872Z,12.90
2018-01-26T01:54:09.350Z,14.33
2018-01-26T01:56:36.840Z,13.30
2018-01-26T01:59:04.287Z,12.60
2018-01-26T02:01:31.766Z,11.60
2018-01-26T02:03:59.211Z,12.40
2018-01-26T02:06:26.663Z,11.80
2018-01-26T02:08:54.143Z,11.70
2018-01-26T02:11:21.606Z,11.63
2018-01-26T02:13:49.080Z,11.00
2018-01-26T02:16:16.550Z,12.47
2018-01-26T02:18:44.008Z,12.90
2018-01-26T02:21:11.496Z,13.13
2018-01-26T02:23:38.967Z,12.60
2018-01-26T02:26:06.422Z,12.70
2018-01-26T02:28:33.911Z,12.57
2018-01-26T02:31:01.368Z,11.07
2018-01-26T02:33:28.816Z,10.90
2018-01-26T02:35:56.346Z,10.40
2018-01-26T02:38:23.820Z,10.60
2018-01-26T02:40:51.320Z,11.00
2018-01-26T02:43:18.868Z,10.20
2018-01-26T02:45:46.343Z,11.13
2018-01-26T02:48:13.823Z,11.93
2018-01-26T02:50:41.314Z,11.13
2018-01-26T02:53:08.799Z,11.50
2018-01-26T02:55:36.295Z,11.30
2018-01-26T02:58:03.829Z,11.87
2018-01-26T03:00:31.296Z,11.70
2018-01-26T03:02:58.753Z,11.60
2018-01-26T03:05:26.213Z,12.50
2018-01-26T03:07:53.620Z,11.90
2018-01-26T03:10:21.099Z,10.80
2018-01-26T03:12:48.560Z,12.10
2018-01-26T03:15:16.035Z,12.10
2018-01-26T03:17:43.484Z,10.80
2018-01-26T03:20:10.971Z,10.97
2018-01-26T03:22:38.498Z,12.20
2018-01-26T03:25:05.965Z,10.83
2018-01-26T03:27:33.499Z,12.57
2018-01-26T03:30:00.948Z,12.47
2018-01-26T03:32:28.414Z,13.10
2018-01-26T03:34:55.968Z,14.47
2018-01-26T03:37:23.434Z,13.20
2018-01-26T03:39:50.937Z,14.97
2018-01-26T03:42:18.411Z,13.93
2018-01-26T03:44:45.905Z,14.07
2018-01-26T03:47:13.402Z,15.03
2018-01-26T03:49:40.941Z,15.00
2018-01-26T03:52:08.401Z,14.67
2018-01-26T03:54:35.853Z,14.87
2018-01-26T03:57:03.390Z,15.30
2018-01-26T03:59:30.960Z,16.23
2018-01-26T04:01:58.442Z,16.73
2018-01-26T04:04:25.927Z,15.00
2018-01-26T04:06:53.385Z,14.97
2018-01-26T04:09:20.872Z,15.77
2018-01-26T04:11:48.358Z,15.40
2018-01-26T04:14:15.843Z,16.80
2018-01-26T04:16:43.315Z,16.70
2018-01-26T04:19:10.887Z,16.97
2018-01-26T04:21:38.385Z,17.03
2018-01-26T04:24:05.885Z,16.80
2018-01-26T04:26:33.415Z,16.80
2018-01-26T04:29:00.922Z,17.80
2018-01-26T04:31:28.380Z,16.97
2018-01-26T04:33:56.063Z,17.57
2018-01-26T04:36:23.536Z,18.00
2018-01-26T04:38:51.051Z,18.40
2018-01-26T04:41:18.519Z,16.37
2018-01-26T04:43:45.982Z,17.50
2018-01-26T04:46:13.522Z,18.30
2018-01-26T04:48:41.025Z,18.17
2018-01-26T04:51:08.536Z,18.33
2018-01-26T04:53:35.999Z,18.60
2018-01-26T04:56:03.456Z,19.20
2018-01-26T04:58:30.918Z,19.10
2018-01-26T05:00:58.464Z,20.50
2018-01-26T05:03:25.971Z,20.40
2018-01-26T05:05:53.420Z,19.93
2018-01-26T05:08:20.924Z,18.70
2018-01-26T05:10:48.522Z,21.20
2018-01-26T05:13:16.113Z,20.60
2018-01-26T05:15:43.572Z,19.13
2018-01-26T05:18:11.143Z,19.00
2018-01-26T05:20:38.614Z,20.00
2018-01-26T05:23:06.134Z,19.50
2018-01-26T05:25:33.592Z,20.23
2018-01-26T05:28:01.089Z,19.17
2018-01-26T05:30:28.544Z,19.20
2018-01-26T05:32:56.053Z,19.27
2018-01-26T05:35:23.543Z,19.10
2018-01-26T05:37:51.031Z,18.60
2018-01-26T05:40:18.699Z,17.63
2018-01-26T05:42:46.299Z,16.27
2018-01-26T05:45:13.743Z,15.10
2018-01-26T05:47:41.208Z,15.30
2018-01-26T05:50:08.660Z,13.67
2018-01-26T05:52:36.119Z,13.03
2018-01-26T05:55:03.600Z,13.20
2018-01-26T05:57:31.141Z,10.03
2018-01-26T05:59:58.652Z,10.40
2018-01-26T06:02:26.126Z,11.03
2018-01-26T06:04:53.598Z,11.33
2018-01-26T06:07:21.049Z,9.50
2018-01-26T06:09:48.665Z,9.03
2018-01-26T06:12:16.124Z,8.47
2018-01-26T06:14:43.569Z,9.57
2018-01-26T06:17:11.059Z,9.13
2018-01-26T06:19:38.526Z,7.90
2018-01-26T06:22:05.987Z,9.07
2018-01-26T06:24:33.471Z,8.33
2018-01-26T06:27:00.916Z,8.53
2018-01-26T06:29:28.393Z,8.43
2018-01-26T06:31:55.869Z,9.27
2018-01-26T06:34:23.347Z,9.53
2018-01-26T06:36:50.789Z,9.10
2018-01-26T06:39:18.265Z,10.10
2018-01-26T06:41:45.712Z,11.93
2018-01-26T06:44:13.165Z,12.30
2018-01-26T06:46:40.652Z,14.47
2018-01-26T06:49:08.149Z,16.50
2018-01-26T06:51:35.616Z,16.60
2018-01-26T06:54:03.146Z,16.27
2018-01-26T06:56:30.674Z,17.97
2018-01-26T06:58:58.221Z,20.53
2018-01-26T07:01:25.783Z,21.20
2018-01-26T07:03:53.318Z,21.30
2018-01-26T07:06:20.775Z,19.97
2018-01-26T07:08:48.348Z,19.10
2018-01-26T07:11:15.824Z,18.67
2018-01-26T07:13:43.339Z,13.80
2018-01-26T07:16:11.886Z,13.20
2018-01-26T07:18:39.333Z,12.30
2018-01-26T07:21:06.846Z,10.57
2018-01-26T07:23:34.296Z,10.73
2018-01-26T07:26:04.664Z,13.47
2018-01-26T07:28:35.026Z,12.60
2018-01-26T07:31:02.475Z,13.00
2018-01-26T07:33:29.920Z,12.80
2018-01-26T07:35:57.397Z,13.30
2018-01-26T07:38:24.867Z,12.03
2018-01-26T07:40:52.363Z,12.53
2018-01-26T07:43:19.842Z,12.10
2018-01-26T07:45:47.352Z,11.77
2018-01-26T07:48:15.799Z,10.67
2018-01-26T07:50:43.638Z,10.90
2018-01-26T07:53:11.190Z,10.23
2018-01-26T07:55:38.684Z,9.43
2018-01-26T07:58:06.200Z,10.60
2018-01-26T08:00:33.715Z,9.50
2018-01-26T08:03:01.179Z,10.20
2018-01-26T08:05:28.674Z,10.60
2018-01-26T08:07:56.193Z,11.50
2018-01-26T08:10:23.675Z,12.03
2018-01-26T08:12:51.144Z,11.60
2018-01-26T08:15:18.605Z,10.70
2018-01-26T08:17:46.080Z,11.27
2018-01-26T08:20:13.549Z,11.80
2018-01-26T08:22:41.004Z,11.93
2018-01-26T08:25:08.545Z,12.93
2018-01-26T08:27:36.095Z,12.27
2018-01-26T08:30:04.483Z,12.03
2018-01-26T08:32:33.501Z,13.03
2018-01-26T08:35:00.966Z,12.80
2018-01-26T08:37:28.430Z,13.07
2018-01-26T08:39:55.892Z,12.10
2018-01-26T08:42:23.357Z,12.50
2018-01-26T08:44:50.827Z,11.80
2018-01-26T08:47:18.305Z,12.00
2018-01-26T08:49:45.761Z,11.30
2018-01-26T08:52:14.580Z,12.03
2018-01-26T08:54:42.060Z,11.20
2018-01-26T08:57:09.529Z,11.37
2018-01-26T08:59:36.982Z,11.23
2018-01-26T09:02:04.457Z,10.83
2018-01-26T09:04:31.904Z,9.43
2018-01-26T09:06:59.466Z,9.90
2018-01-26T09:09:26.961Z,11.10
2018-01-26T09:11:54.413Z,9.27
2018-01-26T09:14:21.928Z,9.60
2018-01-26T09:16:49.409Z,8.93
2018-01-26T09:19:16.878Z,9.03
2018-01-26T09:21:44.334Z,9.00
2018-01-26T09:24:11.827Z,8.50
2018-01-26T09:26:39.301Z,9.53
2018-01-26T09:29:06.804Z,9.60
2018-01-26T09:31:34.278Z,9.67
2018-01-26T09:34:01.725Z,9.33
2018-01-26T09:36:29.180Z,9.43
2018-01-26T09:38:56.671Z,9.13
2018-01-26T09:41:24.120Z,9.73
2018-01-26T09:43:51.599Z,9.40
2018-01-26T09:46:19.081Z,8.70
2018-01-26T09:48:46.587Z,9.60
2018-01-26T09:51:14.074Z,10.90
2018-01-26T09:53:41.516Z,9.97
2018-01-26T09:56:09.579Z,10.00
2018-01-26T09:58:37.049Z,10.63
2018-01-26T10:01:04.514Z,9.77
2018-01-26T10:03:31.968Z,10.57
2018-01-26T10:05:59.433Z,9.27
2018-01-26T10:08:26.888Z,10.07
2018-01-26T10:10:54.355Z,9.97
2018-01-26T10:13:21.823Z,10.53
2018-01-26T10:15:49.285Z,11.00
2018-01-26T10:18:16.788Z,10.90
2018-01-26T10:20:44.548Z,11.33
2018-01-26T10:23:12.064Z,11.57
2018-01-26T10:25:39.578Z,11.90
2018-01-26T10:28:07.101Z,12.10
2018-01-26T10:30:34.608Z,14.47
2018-01-26T10:33:02.092Z,14.27
2018-01-26T10:35:29.552Z,14.20
2018-01-26T10:37:57.035Z,15.90
2018-01-26T10:40:24.497Z,16.67
2018-01-26T10:42:52.034Z,20.20
2018-01-26T10:45:19.548Z,20.93
2018-01-26T10:47:47.145Z,20.67
2018-01-26T10:50:14.641Z,21.77
2018-01-26T10:52:42.117Z,22.10
2018-01-26T10:55:10.449Z,21.40
2018-01-26T10:57:37.917Z,23.33
2018-01-26T11:00:05.387Z,21.73
2018-01-26T11:02:32.852Z,20.00
2018-01-26T11:05:00.311Z,19.00
2018-01-26T11:07:27.888Z,17.73
2018-01-26T11:09:55.962Z,16.03
2018-01-26T11:12:23.420Z,16.47
2018-01-26T11:14:50.884Z,17.27
2018-01-26T11:17:18.371Z,17.80
2018-01-26T11:19:47.250Z,18.40
2018-01-26T11:22:14.730Z,17.93
2018-01-26T11:24:42.200Z,15.90
2018-01-26T11:27:09.658Z,16.10
2018-01-26T11:29:38.857Z,15.07
2018-01-26T11:32:06.349Z,12.97
2018-01-26T11:34:33.936Z,12.10
2018-01-26T11:37:01.409Z,8.57
2018-01-26T11:39:28.880Z,9.50
2018-01-26T11:41:56.333Z,7.97
2018-01-26T11:44:24.794Z,8.40
2018-01-26T11:46:52.491Z,9.90
2018-01-26T11:49:19.959Z,9.40
2018-01-26T11:51:47.414Z,8.43
2018-01-26T11:54:14.902Z,9.60
2018-01-26T11:56:43.662Z,10.57
2018-01-26T11:59:11.152Z,11.40
2018-01-26T12:01:38.636Z,10.20
2018-01-26T12:04:06.111Z,12.07
2018-01-26T12:06:33.600Z,9.87
2018-01-26T12:09:01.100Z,9.40
2018-01-26T12:11:28.589Z,8.17
2018-01-26T12:13:56.070Z,9.77
2018-01-26T12:16:23.572Z,9.33
2018-01-26T12:18:51.023Z,9.40
2018-01-26T12:21:18.526Z,7.90
2018-01-26T12:23:46.022Z,9.00
2018-01-26T12:26:13.523Z,9.60
2018-01-26T12:28:40.988Z,10.63
2018-01-26T12:31:08.486Z,11.67
2018-01-26T12:33:35.961Z,11.57
2018-01-26T12:36:03.432Z,10.73
2018-01-26T12:38:30.923Z,11.03
2018-01-26T12:40:58.375Z,11.50
2018-01-26T12:43:25.844Z,10.80
2018-01-26T12:45:53.353Z,12.10
2018-01-26T12:48:20.844Z,10.70
2018-01-26T12:50:48.331Z,10.47
2018-01-26T12:53:15.819Z,9.53
2018-01-26T12:55:43.312Z,9.93
2018-01-26T12:58:10.806Z,9.40
2018-01-26T13:00:38.295Z,10.20
2018-01-26T13:03:05.779Z,10.27
2018-01-26T13:05:33.267Z,10.07
2018-01-26T13:08:00.758Z,10.37
2018-01-26T13:10:28.216Z,9.93
2018-01-26T13:12:55.695Z,9.00
2018-01-26T13:15:23.184Z,7.60
2018-01-26T13:17:50.640Z,8.00
2018-01-26T13:20:18.099Z,8.07
2018-01-26T13:22:45.564Z,7.63
2018-01-26T13:25:13.027Z,7.10
2018-01-26T13:27:40.484Z,7.40
2018-01-26T13:30:07.945Z,6.23
2018-01-26T13:32:35.406Z,6.20
2018-01-26T13:35:02.853Z,6.50
2018-01-26T13:37:30.355Z,8.20
2018-01-26T13:39:57.815Z,7.67
2018-01-26T13:42:25.280Z,8.23
2018-01-26T13:44:52.760Z,8.23
2018-01-26T13:47:21.048Z,7.73
2018-01-26T13:49:48.516Z,7.70
2018-01-26T13:52:15.969Z,8.60
2018-01-26T13:54:43.524Z,7.80
2018-01-26T13:57:10.985Z,7.20
2018-01-26T13:59:38.460Z,6.67
2018-01-26T14:02:05.899Z,6.37
2018-01-26T14:04:33.353Z,6.30
2018-01-26T14:07:00.822Z,7.03
2018-01-26T14:09:28.273Z,7.33
2018-01-26T14:11:55.737Z,6.30
2018-01-26T14:14:23.199Z,6.30
2018-01-26T14:16:50.666Z,7.40
2018-01-26T14:19:18.125Z,6.10
2018-01-26T14:21:45.576Z,7.13
2018-01-26T14:24:13.028Z,7.90
2018-01-26T14:26:40.507Z,7.63
2018-01-26T14:29:07.966Z,7.97
2018-01-26T14:31:35.424Z,7.40
2018-01-26T14:34:02.871Z,7.60
2018-01-26T14:36:30.294Z,7.60
2018-01-26T14:38:57.772Z,9.00
2018-01-26T14:41:25.247Z,9.60
2018-01-26T14:43:52.711Z,8.07
2018-01-26T14:46:20.156Z,8.33
2018-01-26T14:48:47.657Z,9.43
2018-01-26T14:51:15.122Z,8.87
2018-01-26T14:53:42.603Z,9.53
2018-01-26T14:56:10.108Z,9.80
2018-01-26T14:58:37.553Z,9.70
2018-01-26T15:01:05.038Z,10.17
2018-01-26T15:03:32.508Z,9.67
2018-01-26T15:05:59.979Z,8.93
2018-01-26T15:08:27.466Z,8.90
2018-01-26T15:10:54.925Z,9.67
2018-01-26T15:13:22.372Z,9.43
2018-01-26T15:15:49.836Z,11.30
2018-01-26T15:18:17.305Z,10.87
2018-01-26T15:20:44.757Z,11.17
2018-01-26T15:23:12.220Z,11.70
2018-01-26T15:25:39.698Z,11.80
2018-01-26T15:28:07.167Z,11.57
2018-01-26T15:30:34.652Z,13.30
2018-01-26T15:33:02.105Z,13.70
2018-01-26T15:35:29.579Z,13.97
2018-01-26T15:37:57.063Z,13.67
2018-01-26T15:40:24.544Z,14.60
2018-01-26T15:42:52.065Z,14.70
2018-01-26T15:45:19.632Z,16.03
2018-01-26T15:47:47.147Z,16.50
2018-01-26T15:50:14.646Z,16.60
2018-01-26T15:52:42.489Z,17.03
2018-01-26T15:55:09.962Z,15.03
2018-01-26T15:57:37.422Z,15.30
2018-01-26T16:00:04.948Z,12.87
2018-01-26T16:02:32.400Z,15.27
2018-01-26T16:04:59.881Z,14.53
2018-01-26T16:07:27.416Z,14.00
2018-01-26T16:09:54.869Z,15.10
2018-01-26T16:12:22.343Z,15.40
2018-01-26T16:14:49.828Z,17.77
2018-01-26T16:17:17.276Z,17.73
2018-01-26T16:19:44.758Z,18.23
2018-01-26T16:22:12.224Z,18.93
2018-01-26T16:24:39.704Z,20.47
2018-01-26T16:27:07.168Z,20.23
2018-01-26T16:29:34.630Z,20.70
2018-01-26T16:32:02.115Z,22.67
2018-01-26T16:34:29.591Z,21.90
2018-01-26T16:36:57.057Z,22.30
2018-01-26T16:39:24.543Z,22.77
2018-01-26T16:41:52.039Z,22.85
2018-01-26T16:44:19.501Z,24.20
2018-01-26T16:46:46.984Z,23.50
2018-01-26T16:49:14.432Z,25.00
2018-01-26T16:51:41.897Z,25.17
2018-01-26T16:54:09.348Z,26.03
2018-01-26T16:56:36.836Z,25.67
2018-01-26T16:59:04.297Z,26.83
2018-01-26T17:01:31.767Z,26.33
2018-01-26T17:03:59.254Z,26.73
2018-01-26T17:06:26.728Z,27.33
2018-01-26T17:08:54.200Z,24.37
2018-01-26T17:11:21.668Z,24.63
2018-01-26T17:13:49.147Z,24.20
2018-01-26T17:16:16.597Z,25.60
2018-01-26T17:18:44.072Z,27.83
2018-01-26T17:21:11.536Z,27.10
2018-01-26T17:23:39.016Z,26.40
2018-01-26T17:26:06.510Z,27.70
2018-01-26T17:28:33.968Z,26.00
2018-01-26T17:31:01.442Z,27.40
2018-01-26T17:33:28.921Z,26.37
2018-01-26T17:35:56.402Z,25.77
2018-01-26T17:38:23.891Z,28.47
2018-01-26T17:40:51.374Z,28.62
2018-01-26T17:43:18.860Z,28.40
2018-01-26T17:45:46.345Z,29.33
2018-01-26T17:48:13.828Z,26.83
2018-01-26T17:50:41.294Z,28.80
2018-01-26T17:53:08.792Z,29.63
2018-01-26T17:55:36.241Z,31.08
2018-01-26T17:58:03.739Z,31.00
2018-01-26T18:00:31.208Z,30.87
2018-01-26T18:02:58.663Z,29.97
2018-01-26T18:05:26.129Z,30.60
2018-01-26T18:07:53.608Z,29.90
2018-01-26T18:10:21.097Z,31.27
2018-01-26T18:12:48.548Z,29.47
2018-01-26T18:15:16.047Z,29.15
2018-01-26T18:17:43.514Z,22.33
2018-01-26T18:20:11.000Z,21.75
2018-01-26T18:22:38.503Z,21.45
2018-01-26T18:25:05.995Z,19.08
2018-01-26T18:27:33.496Z,18.85
2018-01-26T18:30:00.976Z,18.85
2018-01-26T18:32:28.466Z,17.67
2018-01-26T18:34:55.948Z,17.80
2018-01-26T18:37:23.445Z,16.87
2018-01-26T18:39:50.922Z,18.90
2018-01-26T18:42:18.390Z,18.07
2018-01-26T18:44:45.879Z,19.63
2018-01-26T18:47:13.341Z,19.35
2018-01-26T18:49:40.823Z,18.12
2018-01-26T18:52:08.330Z,18.02
2018-01-26T18:54:35.806Z,18.37
2018-01-26T18:57:03.275Z,20.52
2018-01-26T18:59:30.760Z,19.73
2018-01-26T19:01:58.264Z,20.42
2018-01-26T19:04:25.826Z,20.60
2018-01-26T19:06:53.288Z,20.80
2018-01-26T19:09:20.771Z,21.75
2018-01-26T19:11:48.237Z,21.00
2018-01-26T19:14:15.721Z,21.80
2018-01-26T19:16:43.203Z,21.42
2018-01-26T19:19:10.687Z,21.60
2018-01-26T19:21:38.188Z,25.17
2018-01-26T19:24:05.667Z,23.65
2018-01-26T19:26:33.138Z,22.40
2018-01-26T19:29:00.635Z,21.83
2018-01-26T19:31:28.092Z,21.80
2018-01-26T19:33:55.548Z,22.65
2018-01-26T19:36:23.015Z,21.40
2018-01-26T19:38:50.480Z,24.20
2018-01-26T19:41:17.959Z,24.37
2018-01-26T19:43:45.444Z,24.00
2018-01-26T19:46:12.912Z,23.48
2018-01-26T19:48:40.397Z,22.52
2018-01-26T19:51:07.886Z,24.52
2018-01-26T19:53:35.375Z,23.48
2018-01-26T19:56:02.870Z,23.23
2018-01-26T19:58:30.371Z,22.50
2018-01-26T20:00:57.853Z,22.52
2018-01-26T20:03:31.161Z,24.45
2018-01-26T20:06:04.321Z,22.13
2018-01-26T20:08:37.549Z,22.70
2018-01-26T20:11:05.050Z,22.73
2018-01-26T20:13:32.556Z,21.37
2018-01-26T20:16:00.046Z,21.77
2018-01-26T20:18:27.516Z,20.52
2018-01-26T20:20:55.031Z,21.95
2018-01-26T20:23:22.535Z,21.75
2018-01-26T20:25:50.016Z,21.87
2018-01-26T20:28:17.500Z,21.67
2018-01-26T20:30:44.987Z,23.30
2018-01-26T20:33:12.463Z,22.42
2018-01-26T20:35:39.947Z,24.37
2018-01-26T20:38:07.412Z,23.25
2018-01-26T20:40:34.941Z,24.35
2018-01-26T20:43:02.400Z,24.83
2018-01-26T20:45:29.868Z,24.45
2018-01-26T20:47:57.352Z,25.33
2018-01-26T20:50:24.839Z,24.98
2018-01-26T20:52:52.305Z,25.20
2018-01-26T20:55:19.797Z,26.83
2018-01-26T20:57:47.279Z,25.27
2018-01-26T21:00:14.744Z,24.17
2018-01-26T21:02:42.226Z,25.50
2018-01-26T21:05:09.698Z,28.00
2018-01-26T21:07:37.191Z,28.62
2018-01-26T21:10:04.682Z,26.62
2018-01-26T21:12:32.154Z,25.88
2018-01-26T21:14:59.617Z,28.52
2018-01-26T21:17:27.100Z,26.60
2018-01-26T21:19:54.591Z,26.50
2018-01-26T21:22:22.080Z,27.27
2018-01-26T21:24:49.579Z,25.00
2018-01-26T21:27:17.041Z,25.50
2018-01-26T21:29:44.528Z,26.75
2018-01-26T21:32:12.000Z,26.42
2018-01-26T21:34:39.457Z,28.60
2018-01-26T21:37:06.923Z,27.67
2018-01-26T21:39:34.418Z,28.62
2018-01-26T21:42:01.885Z,27.13
2018-01-26T21:44:29.348Z,27.33
2018-01-26T21:46:56.851Z,25.83
2018-01-26T21:49:24.332Z,26.17
2018-01-26T21:51:51.818Z,24.77
2018-01-26T21:54:19.333Z,26.98
2018-01-26T21:56:46.800Z,27.48
2018-01-26T21:59:14.299Z,26.15
2018-01-26T22:01:41.787Z,23.23
2018-01-26T22:04:09.389Z,26.95
2018-01-26T22:06:42.368Z,26.83
2018-01-26T22:09:09.844Z,25.80
2018-01-26T22:11:37.449Z,27.75
2018-01-26T22:14:05.061Z,26.77
2018-01-26T22:16:32.721Z,26.65
2018-01-26T22:19:00.221Z,26.35
2018-01-26T22:21:27.713Z,26.80
2018-01-26T22:23:55.208Z,26.55
2018-01-26T22:26:22.685Z,27.50
2018-01-26T22:28:50.174Z,28.10
2018-01-26T22:31:17.636Z,26.67
2018-01-26T22:33:45.116Z,26.87
2018-01-26T22:36:12.581Z,25.95
2018-01-26T22:38:40.048Z,26.20
2018-01-26T22:41:07.601Z,27.08
2018-01-26T22:43:35.311Z,25.85
2018-01-26T22:46:02.882Z,26.35
2018-01-26T22:48:30.390Z,26.63
2018-01-26T22:50:57.928Z,28.42
2018-01-26T22:53:25.416Z,27.92
2018-01-26T22:55:53.831Z,27.42
2018-01-26T22:58:21.400Z,28.62
2018-01-26T23:00:48.922Z,26.58
2018-01-26T23:03:16.532Z,25.55
2018-01-26T23:05:44.032Z,27.52
2018-01-26T23:08:11.501Z,25.27
2018-01-26T23:10:39.217Z,26.15
2018-01-26T23:13:06.676Z,25.60
2018-01-26T23:15:34.172Z,27.00
2018-01-26T23:18:02.015Z,25.42
2018-01-26T23:20:29.586Z,25.23
2018-01-26T23:22:57.124Z,24.12
2018-01-26T23:25:24.636Z,24.98
2018-01-26T23:27:52.153Z,24.15
2018-01-26T23:30:19.668Z,25.00
2018-01-26T23:32:47.161Z,23.05
2018-01-26T23:35:14.640Z,23.17
2018-01-26T23:37:42.145Z,22.73
2018-01-26T23:40:09.623Z,22.60
2018-01-26T23:42:37.128Z,22.92
2018-01-26T23:45:04.614Z,23.80
2018-01-26T23:47:32.101Z,23.12
2018-01-26T23:49:59.580Z,25.08
2018-01-26T23:52:27.055Z,24.20
2018-01-26T23:54:54.520Z,22.70
2018-01-26T23:57:21.993Z,22.77
2018-01-26T23:59:49.459Z,24.30
